Aviation Digital Data Service (ADDS)

Output produced by METARs form (0712 UTC 24 March 2019)
found at http://www.aviationweather.gov/metar/data/
 
KABI 240652Z 19011KT 10SM CLR 17/14 A3000 RMK AO2 SLP137 T01720144
KABI 240536Z 2406/2506 18010KT P6SM SCT250 
     FM241200 20010KT P6SM SCT030 
     FM241500 22013G20KT P6SM SCT050 
     FM241900 25010KT P6SM SCT250
       
KALI 240710Z AUTO 13004KT 1/4SM FG VV014 14/ A3003 RMK AO2 T0144 $
KALI 240624Z 2406/2506 14005KT 5SM BR BKN025 
     TEMPO 2407/2411 1SM BR BKN015 
     FM241500 17010KT P6SM OVC020 
     FM241900 14014KT P6SM SCT025 BKN035 
     FM250200 15008KT P6SM SCT035
       
KE38 240655Z AUTO 24005KT 10SM CLR 07/M08 A3015 RMK AO2 T00741082
KAMA 240653Z AUTO 28006KT 10SM CLR 05/02 A2998 RMK AO2 SLP133 T00500017
KAMA 240532Z 2406/2506 15009KT P6SM SKC 
     FM241000 34007KT P6SM SKC 
     FM250100 13005KT P6SM FEW250
       
KE11 240655Z AUTO 22008KT 10SM CLR 13/M04 A3003 RMK AO2 T01251039
KLBX 240653Z AUTO 15007KT 10SM CLR 18/17 A3009 RMK AO2 SLP189 T01830167 $
KLBX 240520Z 2406/2506 15007KT P6SM SCT020 BKN250 
     FM241400 17007KT P6SM BKN020 
     FM241700 18013KT P6SM SCT025 BKN035 
     FM250300 16007KT P6SM SCT015 BKN025
       
KGKY 240653Z AUTO 17010G18KT 10SM FEW038 18/14 A3003 RMK AO2 SLP162 T01830144
KGKY 240520Z 2406/2506 17012KT P6SM BKN025 
     FM241800 21015KT P6SM BKN035 
     FM250100 22010KT P6SM VCTS BKN040CB 
     FM250500 35010KT P6SM BKN035
       
KF44 240655Z AUTO 17008G14KT 10SM CLR 16/13 A3006 RMK AO2
KEDC 240655Z AUTO 00000KT 10SM BKN014 OVC021 18/16 A3008 RMK AO2
KAUS 240653Z 18007KT 10SM OVC013 19/17 A3007 RMK AO2 SLP175 T01890167 $
KAUS 240535Z 2406/2512 16009KT P6SM BKN015 BKN029 
     FM241000 18005KT 6SM BR OVC007 
     FM241600 19008KT P6SM OVC015 
     FM242100 17008KT P6SM BKN040 
     FM250600 19006KT P6SM OVC015 
     FM251000 19005KT 6SM BR OVC005
       
KDZB 240655Z AUTO 18005KT 10SM BKN017 BKN023 OVC030 19/16 A3006 RMK AO2 T01860157
KBYY 240655Z AUTO 12003KT 10SM CLR 17/16 A3008 RMK AO2 T01730167
KBMT 240655Z AUTO 13005KT 10SM CLR 17/14 A3013 RMK AO2 T01700136
KBPT 240653Z AUTO 13004KT 10SM SCT029 17/15 A3012 RMK AO2 SLP198 T01670150
KBPT 240520Z 2406/2506 14006KT P6SM FEW110 OVC250 
     TEMPO 2410/2414 5SM BR 
     FM241600 17012KT P6SM SCT035 BKN110 
     FM250000 17008KT P6SM OVC050
       
KBEA 240655Z AUTO 11004KT 10SM SCT024 SCT039 19/17 A3006 RMK AO2 T01910166
KBPG 240655Z AUTO 16009KT 10SM CLR 11/00 A3004 RMK AO2 T01051002
KF00 240655Z AUTO 19014G21KT 10SM CLR 17/14 A3003 RMK AO2 LTG DSNT E P0004 T01660142
KBGD 240651Z AUTO 05008KT 10SM CLR 09/03 A3000 RMK AO2 SLP142 T00940028
K0F2 240655Z AUTO 15008KT 10SM CLR 16/15 A2999 RMK AO2 T01590146
KBBD 240655Z AUTO 18007KT 10SM OVC022 18/15 A3005 RMK AO2
KBBD 240536Z 2406/2506 18008KT P6SM OVC015 
     FM240900 18005KT P6SM OVC007 
     FM241500 19007KT P6SM BKN015 
     FM241700 21010KT P6SM SCT250
       
KBKD 240655Z AUTO 19010KT 10SM CLR 18/16 A2999 RMK AO2 T01750159
K11R 240655Z AUTO 15004KT 10SM SCT060 17/16 A3010 RMK AO2 T01680161
KXBP 240655Z AUTO 19013G18KT 10SM CLR 18/15 A3001 RMK AO2 T01800148
KBRO 240653Z AUTO 15009KT 10SM CLR 21/20 A3004 RMK AO2 SLP171 T02060200
KBRO 240520Z 2406/2506 15007KT P6SM SKC 
     FM241500 15012G18KT P6SM SCT030 
     FM241700 16017G25KT P6SM SCT040 
     FM250200 15008KT P6SM SCT025
       
KBWD 240655Z AUTO 18008KT 10SM OVC025 19/16 A3004 RMK AO1
KCFD 240655Z AUTO 16006KT 10SM CLR 17/16 A3010 RMK AO2 T01650163
KBMQ 240653Z AUTO 18007KT 10SM OVC016 18/16 A3008 RMK AO2 SLP173 T01830156
KRWV 240655Z AUTO 16006KT 10SM OVC018 17/16 A3009 RMK AO2 T01730156
KT35 240655Z AUTO 17007KT 10SM OVC015 18/16 A3007 RMK AO2 T01830156
KHHF 240655Z AUTO 00000KT 10SM CLR 06/04 A2999 RMK AO2 T00600040
KCZT 240655Z AUTO 12003KT 10SM CLR 17/17 A3001 RMK AO2
KCVB 240655Z AUTO 16006KT 10SM BKN014 BKN028 OVC047 19/16 A3007 RMK AO2 T01910158
KF17 240655Z AUTO 15009KT 120V180 10SM SCT027 SCT075 OVC095 17/11 A3012 RMK AO2 T01670110
KCDS 240653Z AUTO 11006KT 10SM CLR 11/05 A2994 RMK AO2 SLP126 T01060050
KCDS 240520Z 2406/2506 VRB05KT P6SM FEW250 
     FM241400 34010KT P6SM FEW250
       
KCPT 240655Z AUTO 17010KT 10SM BKN024 OVC032 18/16 A3005 RMK AO2
K6R3 240655Z AUTO 00000KT 5SM BR CLR 13/13 A3013 RMK AO2 T01250125
KCOM 240655Z AUTO 20010KT 10SM OVC018 18/14 A3004 RMK AO2 T01750143
KCLL 240653Z AUTO 15008KT 10SM CLR 17/16 A3009 RMK AO2 SLP185 T01720156
KCLL 240520Z 2406/2506 16011KT P6SM SCT020 BKN250 
     FM240900 17008KT P6SM BKN012 
     FM241100 16008KT P6SM SCT004 BKN009 
     FM241500 19010KT P6SM BKN015 
     FM241700 19011KT P6SM SCT020 BKN035 
     FM250300 18007KT P6SM SCT015 BKN025
       
K66R 240655Z AUTO 00000KT 10SM OVC024 17/14 A3010 RMK AO2 T01720143
KMKN 240655Z AUTO 20014G19KT 10SM SCT021 18/16 A3003 RMK AO2 T01780158
KCRP 240651Z 17005KT 10SM FEW015 18/16 A3006 RMK AO2 SLP176 T01830161 $
KCRP 240530Z 2406/2506 16010KT P6SM SCT020 
     FM241000 16006KT P6SM OVC010 
     FM241500 16012KT P6SM OVC018 
     FM241800 14016G22KT P6SM SCT025 BKN035 
     FM250300 15010KT P6SM FEW015
       
KCRS 240653Z AUTO 18008KT 10SM CLR 17/14 A3007 RMK AO2 SLP181 T01670144
KCOT 240653Z AUTO 11006KT 10SM CLR 17/17 A3003 RMK AO2 SLP164 T01670167
KDKR 240655Z AUTO 15004KT 10SM 15/13 A3013 RMK AO2
KDHT 240653Z AUTO 35011KT 10SM CLR 05/01 A3003 RMK AO2 SLP146 T00500011
KDHT 240532Z 2406/2506 36010KT P6SM FEW250 
     FM242000 17005KT P6SM FEW250 
     FM250500 06008KT P6SM FEW150
       
KADS 240655Z AUTO 18011G15KT 10SM SCT022 OVC037 19/15 A3005 RMK AO2 T01850145
KDFW 240653Z 18013KT 10SM OVC039 19/14 A3001 RMK AO2 SLP156 T01890144
KDFW 240520Z 2406/2512 18013KT P6SM SCT025 BKN035 
     FM240700 18015KT P6SM BKN025 
     FM241800 21015KT P6SM BKN035 
     FM250100 22010KT P6SM VCTS BKN040CB 
     FM250500 35010KT P6SM BKN035
       
KDAL 240653Z 18013KT 10SM BKN023 OVC040 19/15 A3003 RMK AO2 SLP165 T01940150
KDAL 240520Z 2406/2506 18014KT P6SM SCT025 BKN035 
     FM240700 18015KT P6SM BKN025 
     FM241800 21015KT P6SM BKN035 
     FM250100 22010KT P6SM VCTS BKN040CB 
     FM250500 35010KT P6SM BKN035
       
KRBD 240653Z AUTO 18012KT 10SM FEW035 17/14 A3003 RMK AO2 SLP162 T01720139
KLUD 240655Z AUTO 17010KT 10SM BKN020 17/15 A3000 RMK AO2 T01710150
KDRT 240653Z AUTO 10007KT 10SM CLR 18/17 A3001 RMK AO2 SLP149 T01780167
KDRT 240535Z 2406/2506 10008KT P6SM SKC 
     FM240700 12008KT P6SM OVC015 
     FM241100 13006KT 6SM BR OVC009 
     FM241700 14007KT P6SM OVC015 
     FM242100 14007KT P6SM SCT050
       
K6R6 240653Z AUTO 01006KT 15/13 A3000 RMK AO1 SLP133 T01500133 $
KDUX 240655Z AUTO 34010KT 10SM CLR 04/02 A3002 RMK AO2 T00400021
KELA 240655Z AUTO 09003KT 10SM OVC025 16/15 A3009 RMK AO2 T01600150
K5T9 240655Z AUTO 11007KT 10SM CLR 18/16 A3001 RMK A01
KETN 240655Z AUTO 17006KT 10SM BKN019 16/15 A3001 RMK AO2 T01640146
KEBG 240655Z AUTO 14006KT 10SM CLR 19/18 A3003 RMK AO2 T01930178
KBKS 240655Z AUTO 14003KT 5SM CLR 18/17 A3004 RMK AO1 T01830170
KFST 240653Z AUTO 16010KT 10SM CLR 14/08 A3004 RMK AO2 SLP134 T01440078
KFST 240520Z 2406/2506 19009KT P6SM FEW250 
     FM241900 28011KT P6SM FEW250
       
KAFW 240653Z 19008KT 10SM OVC022 19/15 A3001 RMK AO2 SLP153 T01890150
KAFW 240520Z 2406/2506 18012KT P6SM SCT025 BKN035 
     FM240700 18015KT P6SM BKN025 
     FM241800 21015KT P6SM BKN035 
     FM250100 22010KT P6SM VCTS BKN040CB 
     FM250500 35010KT P6SM BKN035
       
KFTW 240653Z 19008KT 10SM OVC025 18/15 A3001 RMK AO2 SLP158 T01830150
KFTW 240520Z 2406/2506 17012KT P6SM BKN025 
     FM241800 21015KT P6SM BKN035 
     FM250100 22010KT P6SM VCTS BKN040CB 
     FM250500 35010KT P6SM BKN035
       
KFWS 240655Z AUTO 19013G16KT 10SM BKN035 19/15 A3004 RMK AO2 T01850149
KT82 240655Z AUTO 18006KT 10SM OVC012 18/15 A3007 RMK AO2 T01750150
KGLE 240655Z AUTO 18009KT 10SM OVC022 17/15 A3001 RMK AO2 T01720146
KGLS 240652Z AUTO 13008KT 10SM CLR 18/17 A3011 RMK AO2 SLP194 T01830167
KGLS 240520Z 2406/2506 14009KT P6SM FEW020 BKN250 
     FM241700 16011KT P6SM SCT020 BKN050 
     FM250300 17007KT 5SM BR SCT015 SCT025
       
KGOP 240655Z AUTO 15006KT 10SM BKN019 BKN024 OVC031 19/16 A3007 RMK AO2
KGTU 240619Z 17011KT 10SM OVC014 19/16 A3009 RMK AO2
KGYB 240655Z AUTO 16004KT 10SM BKN013 OVC018 20/18 A3009 RMK AO2 T01970177
KT20 240655Z AUTO 15006KT 10SM OVC012 19/18 A3007 RMK AO2 T01920176
KRPH 240655Z AUTO 14005KT 10SM CLR 16/15 A2998 RMK AO2 T01610153
KGDJ 240655Z AUTO 16007G14KT 10SM OVC026 20/16 A3004 RMK AO2 T01950156
KGPM 240655Z AUTO 18008G15KT 10SM CLR 18/14 A3004 RMK AO2 T01810140
KGVT 240650Z AUTO 17009KT 10SM BKN022 BKN037 18/15 A3006 RMK AO2
KMNZ 240655Z AUTO 19015KT 10SM OVC025 18/16 A3005 RMK AO2 T01800157
KHRL 240652Z AUTO 15004KT 10SM CLR 19/17 A3004 RMK AO2 SLP172 T01890172
KHRL 240520Z 2406/2506 15010KT P6SM SKC 
     FM241500 16012G18KT P6SM SCT030 
     FM241700 16017G25KT P6SM SCT040 
     FM250200 15008KT P6SM SCT025
       
KLHB 240655Z AUTO 14005KT 10SM BKN021 17/16 A3009 RMK AO2 T01650156
KHBV 240655Z AUTO 16007KT 10SM OVC012 18/17 A3004 RMK AO2 T01760165
KRFI 240655Z AUTO 18006KT 10SM SCT090 16/12 A3011 RMK AO2 T01630122
KHRX 240655Z AUTO 31010KT 7SM CLR 07/03 A3000 RMK AO2 T00700027
KINJ 240655Z AUTO 17010KT 10SM BKN018 OVC034 18/17 A3004 RMK AO2 T01830170
KHDO 240651Z AUTO 15010KT 10SM OVC019 20/18 A3005 RMK AO2 SLP165 T02000178
KDWH 240653Z AUTO 10003KT 10SM BKN033 17/15 A3010 RMK AO2 SLP193 T01670150
KEFD 240650Z 13003KT 10SM FEW030 SCT080 BKN220 17/14 A3010
TAF KEFD 240400Z 2404/2510 15009KT 9999 SCT020 BKN050 QNH3007INS 
     BECMG 2408/2409 16006KT 8000 BR BKN015 QNH3008INS 
     BECMG 2415/2416 17009KT 9999 NSW BKN020 QNH3004INS 
     BECMG 2423/2424 18006KT 9999 OVC020 QNH3006INS 
     BECMG 2505/2506 18006KT 4800 BR OVC012 QNH3007INS 
     BECMG 2508/2509 19006KT 1600 BR OVC008 QNH3004INS TX25/2420Z TN16/2411Z
       
KIAH 240653Z 10003KT 10SM FEW032 FEW080 BKN250 15/15 A3011 RMK AO2 SLP194 T01500150
KIAH 240520Z 2406/2512 13004KT P6SM SCT020 BKN250 
     FM241100 15005KT P6SM BKN015 
     FM241700 18011KT P6SM SCT025 BKN035 
     FM250300 17007KT P6SM SCT015 BKN025 
     FM250900 23003KT P6SM BKN015 BKN025
       
KTME 240655Z AUTO 00000KT 9SM BKN029 BKN033 BKN060 16/15 A3011 RMK AO2
KAXH 240655Z AUTO 00000KT 10SM CLR 15/15 A3011 RMK AO2 T01470147
KCXO 240653Z AUTO 00000KT 10SM BKN033 14/14 A3011 RMK AO2 SLP195 T01440144
KCXO 240520Z 2406/2506 15004KT P6SM SCT020 BKN250 
     FM241100 15004KT P6SM BKN015 
     FM241700 19011KT P6SM SCT025 BKN035 
     FM250300 17005KT P6SM SCT015 BKN025
       
KLVJ 240653Z AUTO 00000KT 9SM CLR 17/17 A3011 RMK AO2 SLP195 T01670167